sensor_id;sensor_type;location;lat;lon;timestamp;temperature;humidity
33460;DHT22;19795;53.160;6.612;2024-02-15T06:13:35;11.60;99.90
33460;DHT22;19795;53.160;6.612;2024-02-15T06:19:07;11.60;99.90
33460;DHT22;19795;53.160;6.612;2024-02-15T06:21:32;11.60;99.90
33460;DHT22;19795;53.160;6.612;2024-02-15T06:23:58;11.60;99.90
33460;DHT22;19795;53.160;6.612;2024-02-15T06:26:25;11.60;99.90
33460;DHT22;19795;53.160;6.612;2024-02-15T06:28:50;11.60;99.90
33460;DHT22;19795;53.160;6.612;2024-02-15T06:31:34;11.60;99.90
33460;DHT22;19795;53.160;6.612;2024-02-15T06:34:18;11.60;99.90
33460;DHT22;19795;53.160;6.612;2024-02-15T06:37:03;11.60;99.90
33460;DHT22;19795;53.160;6.612;2024-02-15T06:39:47;11.60;99.90
33460;DHT22;19795;53.160;6.612;2024-02-15T06:42:17;11.50;99.90
33460;DHT22;19795;53.160;6.612;2024-02-15T06:44:48;11.60;99.90
33460;DHT22;19795;53.160;6.612;2024-02-15T06:47:16;11.30;99.90
33460;DHT22;19795;53.160;6.612;2024-02-15T06:49:52;11.50;99.90
33460;DHT22;19795;53.160;6.612;2024-02-15T06:52:20;11.50;99.90
33460;DHT22;19795;53.160;6.612;2024-02-15T06:54:46;11.60;99.90
33460;DHT22;19795;53.160;6.612;2024-02-15T07:06:24;11.60;99.90
33460;DHT22;19795;53.160;6.612;2024-02-15T07:08:52;11.50;99.90
33460;DHT22;19795;53.160;6.612;2024-02-15T07:11:19;11.50;99.90
33460;DHT22;19795;53.160;6.612;2024-02-15T07:13:45;11.50;99.90
33460;DHT22;19795;53.160;6.612;2024-02-15T07:16:11;11.60;99.90
33460;DHT22;19795;53.160;6.612;2024-02-15T07:18:37;11.60;99.90
33460;DHT22;19795;53.160;6.612;2024-02-15T07:21:04;11.50;99.90
33460;DHT22;19795;53.160;6.612;2024-02-15T07:23:36;11.60;99.90
33460;DHT22;19795;53.160;6.612;2024-02-15T07:26:02;11.60;99.90
33460;DHT22;19795;53.160;6.612;2024-02-15T07:28:29;11.60;99.90
33460;DHT22;19795;53.160;6.612;2024-02-15T07:30:56;11.70;99.90
33460;DHT22;19795;53.160;6.612;2024-02-15T07:33:22;11.70;99.90
33460;DHT22;19795;53.160;6.612;2024-02-15T07:35:49;11.60;99.90
33460;DHT22;19795;53.160;6.612;2024-02-15T07:38:19;11.70;99.90
33460;DHT22;19795;53.160;6.612;2024-02-15T07:40:45;11.70;99.90
33460;DHT22;19795;53.160;6.612;2024-02-15T07:43:10;11.70;99.90
33460;DHT22;19795;53.160;6.612;2024-02-15T07:45:36;11.70;99.90
33460;DHT22;19795;53.160;6.612;2024-02-15T07:48:04;11.70;99.90
33460;DHT22;19795;53.160;6.612;2024-02-15T07:50:32;11.70;99.90
33460;DHT22;19795;53.160;6.612;2024-02-15T07:52:58;11.70;99.90
33460;DHT22;19795;53.160;6.612;2024-02-15T07:55:24;11.70;99.90
33460;DHT22;19795;53.160;6.612;2024-02-15T07:57:53;11.70;99.90
33460;DHT22;19795;53.160;6.612;2024-02-15T08:00:19;11.70;99.90
33460;DHT22;19795;53.160;6.612;2024-02-15T08:02:45;11.70;99.90
33460;DHT22;19795;53.160;6.612;2024-02-15T08:05:12;11.70;99.90
33460;DHT22;19795;53.160;6.612;2024-02-15T08:07:41;11.70;99.90
33460;DHT22;19795;53.160;6.612;2024-02-15T08:10:07;11.70;99.90
33460;DHT22;19795;53.160;6.612;2024-02-15T08:12:42;11.70;99.90
33460;DHT22;19795;53.160;6.612;2024-02-15T08:15:09;11.70;99.90
33460;DHT22;19795;53.160;6.612;2024-02-15T08:17:39;11.70;99.90
33460;DHT22;19795;53.160;6.612;2024-02-15T08:20:09;11.70;99.90
33460;DHT22;19795;53.160;6.612;2024-02-15T08:22:35;11.70;99.90
33460;DHT22;19795;53.160;6.612;2024-02-15T08:25:12;11.70;99.90
33460;DHT22;19795;53.160;6.612;2024-02-15T08:27:42;11.70;99.90
33460;DHT22;19795;53.160;6.612;2024-02-15T08:30:10;11.80;99.90
33460;DHT22;19795;53.160;6.612;2024-02-15T08:32:37;11.80;99.90
33460;DHT22;19795;53.160;6.612;2024-02-15T08:35:05;11.80;99.90
33460;DHT22;19795;53.160;6.612;2024-02-15T08:37:32;11.80;99.90
33460;DHT22;19795;53.160;6.612;2024-02-15T08:39:59;11.80;99.90
33460;DHT22;19795;53.160;6.612;2024-02-15T08:42:25;11.80;99.90
33460;DHT22;19795;53.160;6.612;2024-02-15T08:44:52;11.80;99.90
33460;DHT22;19795;53.160;6.612;2024-02-15T08:47:20;11.80;99.90
33460;DHT22;19795;53.160;6.612;2024-02-15T08:49:46;11.70;99.90
33460;DHT22;19795;53.160;6.612;2024-02-15T08:52:12;11.50;99.90
33460;DHT22;19795;53.160;6.612;2024-02-15T08:54:38;11.80;99.90
33460;DHT22;19795;53.160;6.612;2024-02-15T08:57:07;11.80;99.90
33460;DHT22;19795;53.160;6.612;2024-02-15T08:59:32;11.80;99.90
33460;DHT22;19795;53.160;6.612;2024-02-15T09:01:58;11.80;99.90
33460;DHT22;19795;53.160;6.612;2024-02-15T09:04:25;11.80;99.90
33460;DHT22;19795;53.160;6.612;2024-02-15T09:06:51;11.80;99.90
33460;DHT22;19795;53.160;6.612;2024-02-15T09:09:17;11.90;99.90
33460;DHT22;19795;53.160;6.612;2024-02-15T09:11:43;11.90;99.90
33460;DHT22;19795;53.160;6.612;2024-02-15T09:14:09;11.90;99.90
33460;DHT22;19795;53.160;6.612;2024-02-15T09:16:38;12.00;99.90
33460;DHT22;19795;53.160;6.612;2024-02-15T09:19:05;12.00;99.90
33460;DHT22;19795;53.160;6.612;2024-02-15T09:21:32;12.00;99.90
33460;DHT22;19795;53.160;6.612;2024-02-15T09:24:01;12.00;99.90
33460;DHT22;19795;53.160;6.612;2024-02-15T09:26:27;12.00;99.90
33460;DHT22;19795;53.160;6.612;2024-02-15T09:28:55;12.00;99.90
33460;DHT22;19795;53.160;6.612;2024-02-15T09:31:24;12.00;99.90
33460;DHT22;19795;53.160;6.612;2024-02-15T09:33:50;12.00;99.90
33460;DHT22;19795;53.160;6.612;2024-02-15T09:36:16;12.10;99.90
33460;DHT22;19795;53.160;6.612;2024-02-15T09:38:42;12.10;99.90
33460;DHT22;19795;53.160;6.612;2024-02-15T09:41:07;12.10;99.90
33460;DHT22;19795;53.160;6.612;2024-02-15T09:43:36;12.10;99.90
33460;DHT22;19795;53.160;6.612;2024-02-15T09:46:23;12.20;99.90
33460;DHT22;19795;53.160;6.612;2024-02-15T09:48:58;12.20;99.90
33460;DHT22;19795;53.160;6.612;2024-02-15T09:51:25;12.20;99.90
33460;DHT22;19795;53.160;6.612;2024-02-15T09:53:51;12.30;99.90
33460;DHT22;19795;53.160;6.612;2024-02-15T09:56:17;12.40;99.90
33460;DHT22;19795;53.160;6.612;2024-02-15T09:58:44;12.40;99.90
33460;DHT22;19795;53.160;6.612;2024-02-15T10:01:10;12.40;99.90
33460;DHT22;19795;53.160;6.612;2024-02-15T10:03:40;12.70;99.90
33460;DHT22;19795;53.160;6.612;2024-02-15T10:06:06;12.50;99.90
33460;DHT22;19795;53.160;6.612;2024-02-15T10:08:32;12.50;99.90
33460;DHT22;19795;53.160;6.612;2024-02-15T10:11:08;12.50;99.90
33460;DHT22;19795;53.160;6.612;2024-02-15T10:13:35;12.50;99.90
33460;DHT22;19795;53.160;6.612;2024-02-15T10:16:14;12.50;99.90
33460;DHT22;19795;53.160;6.612;2024-02-15T10:18:40;12.60;99.90
33460;DHT22;19795;53.160;6.612;2024-02-15T10:21:06;12.70;99.90
33460;DHT22;19795;53.160;6.612;2024-02-15T10:23:32;12.80;99.90
33460;DHT22;19795;53.160;6.612;2024-02-15T10:25:57;12.80;99.90
33460;DHT22;19795;53.160;6.612;2024-02-15T10:28:24;12.80;99.90
33460;DHT22;19795;53.160;6.612;2024-02-15T10:30:50;12.80;99.90
33460;DHT22;19795;53.160;6.612;2024-02-15T10:33:19;12.80;99.90
33460;DHT22;19795;53.160;6.612;2024-02-15T10:35:46;12.90;99.90
33460;DHT22;19795;53.160;6.612;2024-02-15T10:38:12;12.80;99.90
33460;DHT22;19795;53.160;6.612;2024-02-15T10:40:39;12.90;99.90
33460;DHT22;19795;53.160;6.612;2024-02-15T10:43:09;12.90;99.90
33460;DHT22;19795;53.160;6.612;2024-02-15T10:45:39;12.90;99.90
33460;DHT22;19795;53.160;6.612;2024-02-15T10:48:09;12.90;99.90
33460;DHT22;19795;53.160;6.612;2024-02-15T10:50:35;12.90;99.90
33460;DHT22;19795;53.160;6.612;2024-02-15T10:53:18;12.90;99.90
33460;DHT22;19795;53.160;6.612;2024-02-15T10:58:47;13.00;99.90
33460;DHT22;19795;53.160;6.612;2024-02-15T11:01:17;12.90;99.90
33460;DHT22;19795;53.160;6.612;2024-02-15T11:03:57;13.00;99.90
33460;DHT22;19795;53.160;6.612;2024-02-15T11:06:27;12.90;99.90
33460;DHT22;19795;53.160;6.612;2024-02-15T11:08:53;12.90;99.90
33460;DHT22;19795;53.160;6.612;2024-02-15T11:11:19;12.80;99.90
33460;DHT22;19795;53.160;6.612;2024-02-15T11:13:46;12.90;99.90
33460;DHT22;19795;53.160;6.612;2024-02-15T11:16:46;12.90;99.90
33460;DHT22;19795;53.160;6.612;2024-02-15T11:21:58;13.00;99.90
33460;DHT22;19795;53.160;6.612;2024-02-15T11:24:28;13.00;99.90
33460;DHT22;19795;53.160;6.612;2024-02-15T11:26:58;13.10;99.90
33460;DHT22;19795;53.160;6.612;2024-02-15T11:32:46;13.10;99.90
33460;DHT22;19795;53.160;6.612;2024-02-15T11:35:23;13.20;99.90
33460;DHT22;19795;53.160;6.612;2024-02-15T11:40:28;13.10;99.90
33460;DHT22;19795;53.160;6.612;2024-02-15T11:42:59;13.20;99.90
33460;DHT22;19795;53.160;6.612;2024-02-15T11:45:28;13.10;99.90
33460;DHT22;19795;53.160;6.612;2024-02-15T11:48:11;13.30;99.90
33460;DHT22;19795;53.160;6.612;2024-02-15T11:50:38;13.00;99.90
33460;DHT22;19795;53.160;6.612;2024-02-15T11:53:06;13.10;99.90
33460;DHT22;19795;53.160;6.612;2024-02-15T11:55:35;13.10;99.90
33460;DHT22;19795;53.160;6.612;2024-02-15T11:58:03;13.10;99.90
33460;DHT22;19795;53.160;6.612;2024-02-15T12:00:59;13.00;99.90
33460;DHT22;19795;53.160;6.612;2024-02-15T12:03:44;13.10;99.90
33460;DHT22;19795;53.160;6.612;2024-02-15T12:06:28;13.30;99.90
33460;DHT22;19795;53.160;6.612;2024-02-15T12:09:12;13.20;99.90
33460;DHT22;19795;53.160;6.612;2024-02-15T12:12:01;13.20;99.90
33460;DHT22;19795;53.160;6.612;2024-02-15T12:14:45;13.10;99.90
33460;DHT22;19795;53.160;6.612;2024-02-15T12:17:30;13.10;99.90
33460;DHT22;19795;53.160;6.612;2024-02-15T12:20:14;13.10;99.90
33460;DHT22;19795;53.160;6.612;2024-02-15T12:22:44;13.10;99.90
33460;DHT22;19795;53.160;6.612;2024-02-15T12:25:14;13.00;99.90
33460;DHT22;19795;53.160;6.612;2024-02-15T12:27:42;13.00;99.90
33460;DHT22;19795;53.160;6.612;2024-02-15T12:30:17;13.10;99.90
33460;DHT22;19795;53.160;6.612;2024-02-15T12:32:51;13.00;99.90
33460;DHT22;19795;53.160;6.612;2024-02-15T12:35:21;13.00;99.90
33460;DHT22;19795;53.160;6.612;2024-02-15T12:38:01;13.00;99.90
33460;DHT22;19795;53.160;6.612;2024-02-15T12:40:31;13.10;99.90
33460;DHT22;19795;53.160;6.612;2024-02-15T12:42:58;13.00;99.90
33460;DHT22;19795;53.160;6.612;2024-02-15T12:45:26;13.10;99.90
33460;DHT22;19795;53.160;6.612;2024-02-15T12:47:55;13.10;99.90
33460;DHT22;19795;53.160;6.612;2024-02-15T12:50:30;13.10;99.90
33460;DHT22;19795;53.160;6.612;2024-02-15T12:52:56;13.00;99.90
33460;DHT22;19795;53.160;6.612;2024-02-15T12:55:29;13.00;99.90
33460;DHT22;19795;53.160;6.612;2024-02-15T12:57:57;13.00;99.90
33460;DHT22;19795;53.160;6.612;2024-02-15T13:00:26;13.00;99.90
33460;DHT22;19795;53.160;6.612;2024-02-15T13:02:57;12.90;99.90
33460;DHT22;19795;53.160;6.612;2024-02-15T13:05:25;13.10;99.90
33460;DHT22;19795;53.160;6.612;2024-02-15T13:07:52;13.00;99.90
33460;DHT22;19795;53.160;6.612;2024-02-15T13:10:18;13.10;99.90
33460;DHT22;19795;53.160;6.612;2024-02-15T13:12:45;13.10;99.90
33460;DHT22;19795;53.160;6.612;2024-02-15T13:15:13;13.10;99.90
33460;DHT22;19795;53.160;6.612;2024-02-15T13:17:49;13.10;99.90
33460;DHT22;19795;53.160;6.612;2024-02-15T13:20:17;13.10;99.90
33460;DHT22;19795;53.160;6.612;2024-02-15T13:22:46;13.20;99.90
33460;DHT22;19795;53.160;6.612;2024-02-15T13:25:13;13.10;99.90
33460;DHT22;19795;53.160;6.612;2024-02-15T13:27:42;13.10;99.90
33460;DHT22;19795;53.160;6.612;2024-02-15T13:30:09;13.00;99.90
33460;DHT22;19795;53.160;6.612;2024-02-15T13:32:39;13.00;99.90
33460;DHT22;19795;53.160;6.612;2024-02-15T13:35:07;13.10;99.90
33460;DHT22;19795;53.160;6.612;2024-02-15T13:37:59;13.00;99.90
33460;DHT22;19795;53.160;6.612;2024-02-15T13:40:26;13.00;99.90
33460;DHT22;19795;53.160;6.612;2024-02-15T13:42:59;13.00;99.90
33460;DHT22;19795;53.160;6.612;2024-02-15T13:45:36;12.90;99.90
33460;DHT22;19795;53.160;6.612;2024-02-15T13:48:05;12.80;99.90
33460;DHT22;19795;53.160;6.612;2024-02-15T13:50:32;12.80;99.90
33460;DHT22;19795;53.160;6.612;2024-02-15T13:52:59;12.80;99.90
33460;DHT22;19795;53.160;6.612;2024-02-15T13:55:28;12.80;99.90
33460;DHT22;19795;53.160;6.612;2024-02-15T13:58:03;12.70;99.90
33460;DHT22;19795;53.160;6.612;2024-02-15T14:00:29;12.80;99.90
33460;DHT22;19795;53.160;6.612;2024-02-15T14:02:59;12.80;99.90
33460;DHT22;19795;53.160;6.612;2024-02-15T14:05:27;12.80;99.90
33460;DHT22;19795;53.160;6.612;2024-02-15T14:07:59;12.80;99.90
33460;DHT22;19795;53.160;6.612;2024-02-15T14:10:27;12.80;99.90
33460;DHT22;19795;53.160;6.612;2024-02-15T14:12:54;12.80;99.90
33460;DHT22;19795;53.160;6.612;2024-02-15T14:15:28;12.80;99.90
33460;DHT22;19795;53.160;6.612;2024-02-15T14:17:54;12.80;99.90
33460;DHT22;19795;53.160;6.612;2024-02-15T14:20:21;12.70;99.90
33460;DHT22;19795;53.160;6.612;2024-02-15T14:22:48;12.80;99.90
33460;DHT22;19795;53.160;6.612;2024-02-15T14:25:17;12.80;99.90
33460;DHT22;19795;53.160;6.612;2024-02-15T14:27:42;12.70;99.90
33460;DHT22;19795;53.160;6.612;2024-02-15T14:30:08;12.80;99.90
33460;DHT22;19795;53.160;6.612;2024-02-15T14:32:53;12.80;99.90
33460;DHT22;19795;53.160;6.612;2024-02-15T14:35:34;12.80;99.90
33460;DHT22;19795;53.160;6.612;2024-02-15T14:38:08;12.80;99.90
33460;DHT22;19795;53.160;6.612;2024-02-15T14:40:43;12.80;99.90
33460;DHT22;19795;53.160;6.612;2024-02-15T14:43:10;12.80;99.90
33460;DHT22;19795;53.160;6.612;2024-02-15T14:45:40;12.80;99.90
33460;DHT22;19795;53.160;6.612;2024-02-15T14:48:07;12.80;99.90
33460;DHT22;19795;53.160;6.612;2024-02-15T14:50:36;12.80;99.90
33460;DHT22;19795;53.160;6.612;2024-02-15T14:53:02;12.80;99.90
33460;DHT22;19795;53.160;6.612;2024-02-15T14:55:28;12.80;99.90
33460;DHT22;19795;53.160;6.612;2024-02-15T14:57:57;12.80;99.90
33460;DHT22;19795;53.160;6.612;2024-02-15T15:00:23;12.80;99.90
33460;DHT22;19795;53.160;6.612;2024-02-15T15:02:50;12.80;99.90
33460;DHT22;19795;53.160;6.612;2024-02-15T15:05:16;12.70;99.90
33460;DHT22;19795;53.160;6.612;2024-02-15T15:08:00;12.80;99.90
33460;DHT22;19795;53.160;6.612;2024-02-15T15:10:45;12.80;99.90
33460;DHT22;19795;53.160;6.612;2024-02-15T15:13:33;12.80;99.90
33460;DHT22;19795;53.160;6.612;2024-02-15T15:16:00;12.80;99.90
33460;DHT22;19795;53.160;6.612;2024-02-15T15:18:26;12.90;99.90
33460;DHT22;19795;53.160;6.612;2024-02-15T15:20:51;12.90;99.90
33460;DHT22;19795;53.160;6.612;2024-02-15T15:23:17;12.90;99.90
33460;DHT22;19795;53.160;6.612;2024-02-15T15:25:43;12.90;99.90
33460;DHT22;19795;53.160;6.612;2024-02-15T15:28:09;13.00;99.90
33460;DHT22;19795;53.160;6.612;2024-02-15T15:30:34;13.00;99.90
33460;DHT22;19795;53.160;6.612;2024-02-15T15:33:00;12.90;99.90
33460;DHT22;19795;53.160;6.612;2024-02-15T15:35:26;12.90;99.90
33460;DHT22;19795;53.160;6.612;2024-02-15T15:37:53;12.90;99.90
33460;DHT22;19795;53.160;6.612;2024-02-15T15:40:19;12.90;99.90
33460;DHT22;19795;53.160;6.612;2024-02-15T15:42:45;12.90;99.90
33460;DHT22;19795;53.160;6.612;2024-02-15T15:45:11;12.90;99.90
33460;DHT22;19795;53.160;6.612;2024-02-15T15:47:38;12.90;99.90
33460;DHT22;19795;53.160;6.612;2024-02-15T15:50:05;12.80;99.90
33460;DHT22;19795;53.160;6.612;2024-02-15T15:52:39;12.80;99.90
33460;DHT22;19795;53.160;6.612;2024-02-15T15:55:07;12.80;99.90
33460;DHT22;19795;53.160;6.612;2024-02-15T15:57:39;12.80;99.90
33460;DHT22;19795;53.160;6.612;2024-02-15T16:00:08;12.80;99.90
33460;DHT22;19795;53.160;6.612;2024-02-15T16:02:45;12.80;99.90
33460;DHT22;19795;53.160;6.612;2024-02-15T16:05:15;12.70;99.90
33460;DHT22;19795;53.160;6.612;2024-02-15T16:07:44;12.80;99.90
33460;DHT22;19795;53.160;6.612;2024-02-15T16:10:11;12.80;99.90
33460;DHT22;19795;53.160;6.612;2024-02-15T16:12:37;12.80;99.90
33460;DHT22;19795;53.160;6.612;2024-02-15T16:15:05;12.80;99.90
33460;DHT22;19795;53.160;6.612;2024-02-15T16:17:33;12.80;99.90
33460;DHT22;19795;53.160;6.612;2024-02-15T16:20:04;12.80;99.90
33460;DHT22;19795;53.160;6.612;2024-02-15T16:22:33;12.70;99.90
33460;DHT22;19795;53.160;6.612;2024-02-15T16:24:59;12.80;99.90
33460;DHT22;19795;53.160;6.612;2024-02-15T16:27:35;12.70;99.90
33460;DHT22;19795;53.160;6.612;2024-02-15T16:30:01;12.70;99.90
33460;DHT22;19795;53.160;6.612;2024-02-15T16:32:28;12.70;99.90
33460;DHT22;19795;53.160;6.612;2024-02-15T16:34:54;12.60;99.90
33460;DHT22;19795;53.160;6.612;2024-02-15T16:37:23;12.50;99.90
33460;DHT22;19795;53.160;6.612;2024-02-15T16:39:58;12.50;99.90
33460;DHT22;19795;53.160;6.612;2024-02-15T16:42:23;12.50;99.90
33460;DHT22;19795;53.160;6.612;2024-02-15T16:44:49;12.50;99.90
33460;DHT22;19795;53.160;6.612;2024-02-15T16:47:15;12.50;99.90
33460;DHT22;19795;53.160;6.612;2024-02-15T16:49:42;12.40;99.90
33460;DHT22;19795;53.160;6.612;2024-02-15T16:52:08;12.40;99.90
33460;DHT22;19795;53.160;6.612;2024-02-15T16:54:37;12.30;99.90
33460;DHT22;19795;53.160;6.612;2024-02-15T16:57:21;12.30;99.90
33460;DHT22;19795;53.160;6.612;2024-02-15T16:59:50;12.20;99.90
33460;DHT22;19795;53.160;6.612;2024-02-15T17:02:16;12.20;99.90
33460;DHT22;19795;53.160;6.612;2024-02-15T17:04:42;12.20;99.90
33460;DHT22;19795;53.160;6.612;2024-02-15T17:07:08;12.20;99.90
33460;DHT22;19795;53.160;6.612;2024-02-15T17:09:37;12.10;99.90
33460;DHT22;19795;53.160;6.612;2024-02-15T17:12:02;12.10;99.90
33460;DHT22;19795;53.160;6.612;2024-02-15T17:14:31;12.00;99.90
33460;DHT22;19795;53.160;6.612;2024-02-15T17:16:57;11.90;99.90
33460;DHT22;19795;53.160;6.612;2024-02-15T17:19:24;12.00;99.90
33460;DHT22;19795;53.160;6.612;2024-02-15T17:21:50;12.00;99.90
33460;DHT22;19795;53.160;6.612;2024-02-15T17:24:23;11.90;99.90
33460;DHT22;19795;53.160;6.612;2024-02-15T17:26:48;11.90;99.90
33460;DHT22;19795;53.160;6.612;2024-02-15T17:29:14;11.90;99.90
33460;DHT22;19795;53.160;6.612;2024-02-15T17:31:40;11.90;99.90
33460;DHT22;19795;53.160;6.612;2024-02-15T17:34:07;11.80;99.90
33460;DHT22;19795;53.160;6.612;2024-02-15T17:36:39;11.80;99.90
33460;DHT22;19795;53.160;6.612;2024-02-15T17:39:05;11.80;99.90
33460;DHT22;19795;53.160;6.612;2024-02-15T17:41:32;11.80;99.90
33460;DHT22;19795;53.160;6.612;2024-02-15T17:43:58;11.70;99.90
33460;DHT22;19795;53.160;6.612;2024-02-15T17:46:30;11.70;99.90
33460;DHT22;19795;53.160;6.612;2024-02-15T17:48:57;11.70;99.90
33460;DHT22;19795;53.160;6.612;2024-02-15T17:51:23;11.70;99.90
33460;DHT22;19795;53.160;6.612;2024-02-15T17:53:49;11.60;99.90
33460;DHT22;19795;53.160;6.612;2024-02-15T17:56:14;11.60;99.90
33460;DHT22;19795;53.160;6.612;2024-02-15T17:58:41;11.60;99.90
33460;DHT22;19795;53.160;6.612;2024-02-15T18:01:10;11.60;99.90
33460;DHT22;19795;53.160;6.612;2024-02-15T18:03:37;11.60;99.90
33460;DHT22;19795;53.160;6.612;2024-02-15T18:06:04;11.50;99.90
33460;DHT22;19795;53.160;6.612;2024-02-15T18:08:36;11.50;99.90
33460;DHT22;19795;53.160;6.612;2024-02-15T18:11:02;11.50;99.90
33460;DHT22;19795;53.160;6.612;2024-02-15T18:13:33;11.50;99.90
33460;DHT22;19795;53.160;6.612;2024-02-15T18:16:00;11.40;99.90
33460;DHT22;19795;53.160;6.612;2024-02-15T18:18:26;11.40;99.90
33460;DHT22;19795;53.160;6.612;2024-02-15T18:21:02;11.40;99.90
33460;DHT22;19795;53.160;6.612;2024-02-15T18:23:28;11.40;99.90
33460;DHT22;19795;53.160;6.612;2024-02-15T18:25:54;11.40;99.90
33460;DHT22;19795;53.160;6.612;2024-02-15T18:28:19;11.40;99.90
33460;DHT22;19795;53.160;6.612;2024-02-15T18:30:48;11.40;99.90
33460;DHT22;19795;53.160;6.612;2024-02-15T18:33:16;11.20;99.90
33460;DHT22;19795;53.160;6.612;2024-02-15T18:35:46;11.40;99.90
33460;DHT22;19795;53.160;6.612;2024-02-15T18:38:32;11.40;99.90
33460;DHT22;19795;53.160;6.612;2024-02-15T18:41:12;11.40;99.90
33460;DHT22;19795;53.160;6.612;2024-02-15T18:43:38;11.40;99.90
33460;DHT22;19795;53.160;6.612;2024-02-15T18:46:07;11.40;99.90
33460;DHT22;19795;53.160;6.612;2024-02-15T18:48:35;11.40;99.90
33460;DHT22;19795;53.160;6.612;2024-02-15T18:51:07;11.40;99.90
33460;DHT22;19795;53.160;6.612;2024-02-15T18:56:48;11.40;99.90
33460;DHT22;19795;53.160;6.612;2024-02-15T18:59:25;11.30;99.90
33460;DHT22;19795;53.160;6.612;2024-02-15T19:01:54;11.30;99.90
33460;DHT22;19795;53.160;6.612;2024-02-15T19:04:40;11.40;99.90
33460;DHT22;19795;53.160;6.612;2024-02-15T19:07:05;11.40;99.90
33460;DHT22;19795;53.160;6.612;2024-02-15T19:09:31;11.40;99.90
33460;DHT22;19795;53.160;6.612;2024-02-15T19:11:57;11.50;99.90
33460;DHT22;19795;53.160;6.612;2024-02-15T19:14:25;11.50;99.90
33460;DHT22;19795;53.160;6.612;2024-02-15T19:16:51;11.50;99.90
33460;DHT22;19795;53.160;6.612;2024-02-15T19:19:17;11.60;99.90
33460;DHT22;19795;53.160;6.612;2024-02-15T19:21:46;11.60;99.90
33460;DHT22;19795;53.160;6.612;2024-02-15T19:24:12;11.70;99.90
33460;DHT22;19795;53.160;6.612;2024-02-15T19:26:38;11.70;99.90
33460;DHT22;19795;53.160;6.612;2024-02-15T19:29:09;11.80;99.90
33460;DHT22;19795;53.160;6.612;2024-02-15T19:31:42;11.70;99.90
33460;DHT22;19795;53.160;6.612;2024-02-15T19:34:10;11.80;99.90
33460;DHT22;19795;53.160;6.612;2024-02-15T19:36:36;11.80;99.90
33460;DHT22;19795;53.160;6.612;2024-02-15T19:39:05;11.80;99.90
33460;DHT22;19795;53.160;6.612;2024-02-15T19:41:39;11.90;99.90
33460;DHT22;19795;53.160;6.612;2024-02-15T19:44:06;11.90;99.90
33460;DHT22;19795;53.160;6.612;2024-02-15T19:46:33;11.80;99.90
33460;DHT22;19795;53.160;6.612;2024-02-15T19:49:01;11.90;99.90
33460;DHT22;19795;53.160;6.612;2024-02-15T19:51:27;11.90;99.90
33460;DHT22;19795;53.160;6.612;2024-02-15T19:53:54;11.90;99.90
33460;DHT22;19795;53.160;6.612;2024-02-15T19:56:20;11.90;99.90
33460;DHT22;19795;53.160;6.612;2024-02-15T19:58:49;12.00;99.90
33460;DHT22;19795;53.160;6.612;2024-02-15T20:01:25;11.90;99.90
33460;DHT22;19795;53.160;6.612;2024-02-15T20:03:52;11.90;99.90
33460;DHT22;19795;53.160;6.612;2024-02-15T20:06:18;11.90;99.90
33460;DHT22;19795;53.160;6.612;2024-02-15T20:08:49;11.90;99.90
33460;DHT22;19795;53.160;6.612;2024-02-15T20:11:16;12.00;99.90
33460;DHT22;19795;53.160;6.612;2024-02-15T20:13:45;12.00;99.90
33460;DHT22;19795;53.160;6.612;2024-02-15T20:16:12;11.90;99.90
33460;DHT22;19795;53.160;6.612;2024-02-15T20:18:38;12.00;99.90
33460;DHT22;19795;53.160;6.612;2024-02-15T20:21:04;11.90;99.90
33460;DHT22;19795;53.160;6.612;2024-02-15T20:23:33;12.00;99.90
33460;DHT22;19795;53.160;6.612;2024-02-15T20:25:58;12.00;99.90
